sensor_id;sensor_type;location;lat;lon;timestamp;pressure;altitude;pressure_sealevel;temperature;humidity
46534;BME280;32260;52.008;4.752;2023-04-01T00:00:19;99143.34;;;11.82;75.57
46534;BME280;32260;52.008;4.752;2023-04-01T00:02:46;99150.38;;;11.83;75.78
46534;BME280;32260;52.008;4.752;2023-04-01T00:05:12;99149.59;;;11.81;76.12
46534;BME280;32260;52.008;4.752;2023-04-01T00:07:40;99147.25;;;11.75;75.89
46534;BME280;32260;52.008;4.752;2023-04-01T00:10:08;99153.75;;;11.69;76.34
46534;BME280;32260;52.008;4.752;2023-04-01T00:12:35;99159.59;;;11.76;75.85
46534;BME280;32260;52.008;4.752;2023-04-01T00:15:03;99149.31;;;11.70;76.15
46534;BME280;32260;52.008;4.752;2023-04-01T00:17:29;99152.28;;;11.63;76.97
46534;BME280;32260;52.008;4.752;2023-04-01T00:19:56;99168.09;;;11.65;75.81
46534;BME280;32260;52.008;4.752;2023-04-01T00:22:24;99162.97;;;11.62;76.51
46534;BME280;32260;52.008;4.752;2023-04-01T00:24:50;99164.00;;;11.59;76.57
46534;BME280;32260;52.008;4.752;2023-04-01T00:27:16;99170.13;;;11.60;76.24
46534;BME280;32260;52.008;4.752;2023-04-01T00:29:44;99171.63;;;11.65;75.90
46534;BME280;32260;52.008;4.752;2023-04-01T00:32:11;99174.75;;;11.56;76.63
46534;BME280;32260;52.008;4.752;2023-04-01T00:34:37;99173.03;;;11.55;76.28
46534;BME280;32260;52.008;4.752;2023-04-01T00:37:03;99180.03;;;11.56;75.89
46534;BME280;32260;52.008;4.752;2023-04-01T00:39:30;99177.38;;;11.56;76.09
46534;BME280;32260;52.008;4.752;2023-04-01T00:41:57;99184.91;;;11.48;76.63
46534;BME280;32260;52.008;4.752;2023-04-01T00:44:27;99184.91;;;11.48;76.63
46534;BME280;32260;52.008;4.752;2023-04-01T00:46:54;99182.25;;;11.48;76.52
46534;BME280;32260;52.008;4.752;2023-04-01T00:49:27;99184.59;;;11.54;76.27
46534;BME280;32260;52.008;4.752;2023-04-01T00:51:57;99186.66;;;11.47;76.74
46534;BME280;32260;52.008;4.752;2023-04-01T00:54:26;99185.34;;;11.56;76.09
46534;BME280;32260;52.008;4.752;2023-04-01T00:56:59;99189.09;;;11.52;76.62
46534;BME280;32260;52.008;4.752;2023-04-01T00:59:33;99193.00;;;11.45;76.59
46534;BME280;32260;52.008;4.752;2023-04-01T01:02:02;99204.41;;;11.47;76.19
46534;BME280;32260;52.008;4.752;2023-04-01T01:04:31;99200.81;;;11.48;76.56
46534;BME280;32260;52.008;4.752;2023-04-01T01:08:15;99197.84;;;11.54;76.08
46534;BME280;32260;52.008;4.752;2023-04-01T01:12:47;99196.56;;;11.44;76.67
46534;BME280;32260;52.008;4.752;2023-04-01T01:15:54;99193.47;;;11.36;76.82
46534;BME280;32260;52.008;4.752;2023-04-01T01:22:05;99200.94;;;11.45;76.78
46534;BME280;32260;52.008;4.752;2023-04-01T01:35:40;99210.69;;;11.27;77.27
46534;BME280;32260;52.008;4.752;2023-04-01T01:38:13;99214.69;;;11.36;77.50
46534;BME280;32260;52.008;4.752;2023-04-01T01:40:44;99212.88;;;11.36;76.72
46534;BME280;32260;52.008;4.752;2023-04-01T01:43:14;99223.66;;;11.33;76.72
46534;BME280;32260;52.008;4.752;2023-04-01T01:45:46;99218.56;;;11.28;77.20
46534;BME280;32260;52.008;4.752;2023-04-01T01:48:14;99218.56;;;11.28;77.29
46534;BME280;32260;52.008;4.752;2023-04-01T01:50:43;99216.41;;;11.37;76.73
46534;BME280;32260;52.008;4.752;2023-04-01T01:53:12;99226.00;;;11.39;76.51
46534;BME280;32260;52.008;4.752;2023-04-01T01:55:40;99226.84;;;11.40;76.55
46534;BME280;32260;52.008;4.752;2023-04-01T02:00:59;99224.28;;;11.38;76.61
46534;BME280;32260;52.008;4.752;2023-04-01T02:03:30;99227.31;;;11.30;76.46
46534;BME280;32260;52.008;4.752;2023-04-01T02:05:59;99228.88;;;11.35;76.93
46534;BME280;32260;52.008;4.752;2023-04-01T02:08:30;99229.56;;;11.38;76.61
46534;BME280;32260;52.008;4.752;2023-04-01T02:11:03;99237.75;;;11.33;76.61
46534;BME280;32260;52.008;4.752;2023-04-01T02:13:52;99246.34;;;11.39;76.91
46534;BME280;32260;52.008;4.752;2023-04-01T02:16:23;99248.13;;;11.38;76.23
46534;BME280;32260;52.008;4.752;2023-04-01T02:18:53;99255.47;;;11.33;76.96
46534;BME280;32260;52.008;4.752;2023-04-01T02:21:23;99255.25;;;11.38;76.64
46534;BME280;32260;52.008;4.752;2023-04-01T02:23:51;99253.03;;;11.28;76.73
46534;BME280;32260;52.008;4.752;2023-04-01T02:26:20;99254.59;;;11.32;77.01
46534;BME280;32260;52.008;4.752;2023-04-01T02:28:47;99262.69;;;11.29;77.08
46534;BME280;32260;52.008;4.752;2023-04-01T02:31:17;99260.28;;;11.25;77.17
46534;BME280;32260;52.008;4.752;2023-04-01T02:33:43;99264.13;;;11.37;76.95
46534;BME280;32260;52.008;4.752;2023-04-01T02:36:13;99271.28;;;11.35;76.78
46534;BME280;32260;52.008;4.752;2023-04-01T02:38:41;99266.16;;;11.31;77.15
46534;BME280;32260;52.008;4.752;2023-04-01T02:41:08;99265.34;;;11.29;76.90
46534;BME280;32260;52.008;4.752;2023-04-01T02:43:34;99271.59;;;11.28;77.69
46534;BME280;32260;52.008;4.752;2023-04-01T02:46:00;99270.44;;;11.34;77.30
46534;BME280;32260;52.008;4.752;2023-04-01T02:48:27;99271.47;;;11.31;77.49
46534;BME280;32260;52.008;4.752;2023-04-01T02:50:54;99279.03;;;11.20;78.00
46534;BME280;32260;52.008;4.752;2023-04-01T02:53:20;99279.47;;;11.30;77.19
46534;BME280;32260;52.008;4.752;2023-04-01T02:55:46;99276.50;;;11.36;76.73
46534;BME280;32260;52.008;4.752;2023-04-01T02:58:15;99278.94;;;11.41;76.67
46534;BME280;32260;52.008;4.752;2023-04-01T03:00:42;99285.97;;;11.42;76.59
46534;BME280;32260;52.008;4.752;2023-04-01T03:03:08;99293.78;;;11.45;76.97
46534;BME280;32260;52.008;4.752;2023-04-01T03:05:35;99294.56;;;11.47;76.96
46534;BME280;32260;52.008;4.752;2023-04-01T03:08:01;99298.78;;;11.51;76.75
46534;BME280;32260;52.008;4.752;2023-04-01T03:10:28;99299.56;;;11.53;76.75
46534;BME280;32260;52.008;4.752;2023-04-01T03:12:54;99303.78;;;11.57;76.61
46534;BME280;32260;52.008;4.752;2023-04-01T03:15:20;99310.09;;;11.55;76.91
46534;BME280;32260;52.008;4.752;2023-04-01T03:17:46;99310.81;;;11.58;76.72
46534;BME280;32260;52.008;4.752;2023-04-01T03:20:13;99313.38;;;11.60;76.97
46534;BME280;32260;52.008;4.752;2023-04-01T03:22:39;99325.00;;;11.57;77.23
46534;BME280;32260;52.008;4.752;2023-04-01T03:25:06;99315.56;;;11.52;77.20
46534;BME280;32260;52.008;4.752;2023-04-01T03:27:34;99326.72;;;11.58;77.55
46534;BME280;32260;52.008;4.752;2023-04-01T03:30:02;99331.41;;;11.53;77.26
46534;BME280;32260;52.008;4.752;2023-04-01T03:32:28;99339.19;;;11.56;77.86
46534;BME280;32260;52.008;4.752;2023-04-01T03:34:55;99335.03;;;11.70;76.83
46534;BME280;32260;52.008;4.752;2023-04-01T03:37:22;99352.88;;;11.66;77.20
46534;BME280;32260;52.008;4.752;2023-04-01T03:39:48;99350.22;;;11.66;77.66
46534;BME280;32260;52.008;4.752;2023-04-01T03:42:14;99346.56;;;11.69;77.00
46534;BME280;32260;52.008;4.752;2023-04-01T03:44:41;99353.47;;;11.73;77.20
46534;BME280;32260;52.008;4.752;2023-04-01T03:47:07;99360.53;;;11.72;77.00
46534;BME280;32260;52.008;4.752;2023-04-01T03:49:35;99357.03;;;11.72;76.96
46534;BME280;32260;52.008;4.752;2023-04-01T03:52:01;99358.50;;;11.77;76.91
46534;BME280;32260;52.008;4.752;2023-04-01T03:54:27;99376.09;;;11.80;77.24
46534;BME280;32260;52.008;4.752;2023-04-01T03:56:53;99372.44;;;11.82;77.07
46534;BME280;32260;52.008;4.752;2023-04-01T03:59:20;99373.38;;;11.81;77.28
46534;BME280;32260;52.008;4.752;2023-04-01T04:01:47;99380.41;;;11.82;76.45
46534;BME280;32260;52.008;4.752;2023-04-01T04:04:14;99381.63;;;11.75;77.22
46534;BME280;32260;52.008;4.752;2023-04-01T04:06:40;99388.28;;;11.84;76.68
46534;BME280;32260;52.008;4.752;2023-04-01T04:09:06;99388.88;;;11.72;77.58
46534;BME280;32260;52.008;4.752;2023-04-01T04:11:32;99393.97;;;11.76;77.58
46534;BME280;32260;52.008;4.752;2023-04-01T04:13:59;99408.09;;;11.77;77.53
46534;BME280;32260;52.008;4.752;2023-04-01T04:16:25;99403.41;;;11.82;76.83
46534;BME280;32260;52.008;4.752;2023-04-01T04:18:51;99412.31;;;11.81;77.21
46534;BME280;32260;52.008;4.752;2023-04-01T04:21:17;99418.25;;;11.86;77.34
46534;BME280;32260;52.008;4.752;2023-04-01T04:23:44;99419.22;;;11.85;77.25
46534;BME280;32260;52.008;4.752;2023-04-01T04:26:12;99420.22;;;11.82;76.98
46534;BME280;32260;52.008;4.752;2023-04-01T04:28:39;99423.56;;;11.86;76.87
46534;BME280;32260;52.008;4.752;2023-04-01T04:31:05;99429.03;;;11.83;76.90
46534;BME280;32260;52.008;4.752;2023-04-01T04:33:33;99435.03;;;11.87;77.11
46534;BME280;32260;52.008;4.752;2023-04-01T04:36:00;99438.72;;;11.84;77.21
46534;BME280;32260;52.008;4.752;2023-04-01T04:38:26;99442.41;;;11.80;77.28
46534;BME280;32260;52.008;4.752;2023-04-01T04:40:53;99449.31;;;11.84;76.77
46534;BME280;32260;52.008;4.752;2023-04-01T04:43:19;99451.19;;;11.82;76.85
46534;BME280;32260;52.008;4.752;2023-04-01T04:45:46;99456.50;;;11.82;76.83
46534;BME280;32260;52.008;4.752;2023-04-01T04:48:14;99470.63;;;11.82;76.44
46534;BME280;32260;52.008;4.752;2023-04-01T04:50:45;99466.91;;;11.87;76.70
46534;BME280;32260;52.008;4.752;2023-04-01T04:53:12;99462.59;;;11.84;76.58
46534;BME280;32260;52.008;4.752;2023-04-01T04:55:42;99470.63;;;11.82;76.78
46534;BME280;32260;52.008;4.752;2023-04-01T04:58:08;99479.66;;;11.78;76.33
46534;BME280;32260;52.008;4.752;2023-04-01T05:00:34;99479.31;;;11.67;76.78
46534;BME280;32260;52.008;4.752;2023-04-01T05:03:01;99488.78;;;11.73;76.78
46534;BME280;32260;52.008;4.752;2023-04-01T05:05:29;99490.19;;;11.80;76.46
46534;BME280;32260;52.008;4.752;2023-04-01T05:07:56;99484.03;;;11.79;76.67
46534;BME280;32260;52.008;4.752;2023-04-01T05:10:22;99494.72;;;11.78;76.21
46534;BME280;32260;52.008;4.752;2023-04-01T05:12:48;99499.22;;;11.76;76.12
46534;BME280;32260;52.008;4.752;2023-04-01T05:15:14;99506.56;;;11.71;76.31
46534;BME280;32260;52.008;4.752;2023-04-01T05:17:40;99505.75;;;11.69;76.76
46534;BME280;32260;52.008;4.752;2023-04-01T05:20:07;99518.25;;;11.67;76.23
46534;BME280;32260;52.008;4.752;2023-04-01T05:22:34;99526.06;;;11.70;76.60
46534;BME280;32260;52.008;4.752;2023-04-01T05:25:00;99520.63;;;11.73;76.31
46534;BME280;32260;52.008;4.752;2023-04-01T05:27:26;99541.97;;;11.70;76.51
46534;BME280;32260;52.008;4.752;2023-04-01T05:29:52;99536.81;;;11.67;76.43
46534;BME280;32260;52.008;4.752;2023-04-01T05:32:18;99544.81;;;11.65;75.94
46534;BME280;32260;52.008;4.752;2023-04-01T05:34:44;99542.56;;;11.76;75.89
46534;BME280;32260;52.008;4.752;2023-04-01T05:37:10;99550.47;;;11.57;76.53
46534;BME280;32260;52.008;4.752;2023-04-01T05:39:38;99547.34;;;11.68;75.87
46534;BME280;32260;52.008;4.752;2023-04-01T05:42:06;99546.34;;;11.71;76.45
46534;BME280;32260;52.008;4.752;2023-04-01T05:44:33;99561.34;;;11.72;75.90
46534;BME280;32260;52.008;4.752;2023-04-01T05:47:00;99563.34;;;11.67;75.93
46534;BME280;32260;52.008;4.752;2023-04-01T05:49:26;99564.94;;;11.71;76.69
46534;BME280;32260;52.008;4.752;2023-04-01T05:51:52;99576.88;;;11.60;76.43
46534;BME280;32260;52.008;4.752;2023-04-01T05:54:19;99579.19;;;11.68;76.03
46534;BME280;32260;52.008;4.752;2023-04-01T05:56:48;99577.66;;;11.62;76.25
46534;BME280;32260;52.008;4.752;2023-04-01T05:59:15;99577.66;;;11.62;76.33
46534;BME280;32260;52.008;4.752;2023-04-01T06:01:41;99585.50;;;11.65;76.22
46534;BME280;32260;52.008;4.752;2023-04-01T06:04:12;99584.84;;;11.60;76.46
46534;BME280;32260;52.008;4.752;2023-04-01T06:06:40;99591.47;;;11.71;75.53
46534;BME280;32260;52.008;4.752;2023-04-01T06:09:27;99595.03;;;11.70;76.44
46534;BME280;32260;52.008;4.752;2023-04-01T06:14:57;99606.66;;;11.67;76.45
46534;BME280;32260;52.008;4.752;2023-04-01T06:25:54;99632.19;;;11.70;76.25
46534;BME280;32260;52.008;4.752;2023-04-01T06:28:40;99622.56;;;11.67;76.43
46534;BME280;32260;52.008;4.752;2023-04-01T06:40:03;99643.72;;;11.69;75.96
46534;BME280;32260;52.008;4.752;2023-04-01T06:51:31;99653.94;;;11.57;76.70
46534;BME280;32260;52.008;4.752;2023-04-01T06:54:21;99659.78;;;11.65;75.97
46534;BME280;32260;52.008;4.752;2023-04-01T06:56:57;99668.75;;;11.63;76.26
46534;BME280;32260;52.008;4.752;2023-04-01T06:59:27;99666.94;;;11.63;76.64
46534;BME280;32260;52.008;4.752;2023-04-01T07:01:59;99676.91;;;11.58;76.56
46534;BME280;32260;52.008;4.752;2023-04-01T07:04:29;99682.47;;;11.73;76.08
46534;BME280;32260;52.008;4.752;2023-04-01T07:07:01;99682.38;;;11.54;76.84
46534;BME280;32260;52.008;4.752;2023-04-01T07:09:34;99685.19;;;11.51;76.93
46534;BME280;32260;52.008;4.752;2023-04-01T07:12:26;99678.75;;;11.56;76.61
46534;BME280;32260;52.008;4.752;2023-04-01T07:14:55;99705.16;;;11.59;76.59
46534;BME280;32260;52.008;4.752;2023-04-01T07:17:31;99701.94;;;11.51;76.39
46534;BME280;32260;52.008;4.752;2023-04-01T07:20:05;99705.66;;;11.47;76.49
46534;BME280;32260;52.008;4.752;2023-04-01T07:22:41;99709.13;;;11.49;76.88
46534;BME280;32260;52.008;4.752;2023-04-01T07:25:21;99710.47;;;11.59;76.39
46534;BME280;32260;52.008;4.752;2023-04-01T07:27:48;99708.88;;;11.55;76.77
46534;BME280;32260;52.008;4.752;2023-04-01T07:30:19;99708.88;;;11.55;76.80
46534;BME280;32260;52.008;4.752;2023-04-01T07:33:05;99726.44;;;11.58;76.22
46534;BME280;32260;52.008;4.752;2023-04-01T07:35:49;99722.41;;;11.70;76.64
46534;BME280;32260;52.008;4.752;2023-04-01T07:38:41;99727.44;;;11.76;76.13
46534;BME280;32260;52.008;4.752;2023-04-01T07:41:38;99734.47;;;11.77;75.85
46534;BME280;32260;52.008;4.752;2023-04-01T07:47:32;99734.34;;;11.80;76.39
46534;BME280;32260;52.008;4.752;2023-04-01T07:55:44;99740.69;;;11.98;76.30
46534;BME280;32260;52.008;4.752;2023-04-01T08:12:37;99764.81;;;11.92;76.45
46534;BME280;32260;52.008;4.752;2023-04-01T08:20:47;99777.03;;;11.96;75.44
46534;BME280;32260;52.008;4.752;2023-04-01T08:23:21;99782.81;;;12.06;75.54
46534;BME280;32260;52.008;4.752;2023-04-01T08:28:40;99801.97;;;12.14;75.01
46534;BME280;32260;52.008;4.752;2023-04-01T08:31:18;99804.59;;;12.14;75.54
46534;BME280;32260;52.008;4.752;2023-04-01T08:33:49;99794.38;;;12.05;75.34
46534;BME280;32260;52.008;4.752;2023-04-01T08:36:24;99800.22;;;12.13;75.30
46534;BME280;32260;52.008;4.752;2023-04-01T08:39:13;99803.94;;;12.09;75.19
46534;BME280;32260;52.008;4.752;2023-04-01T09:21:51;99855.72;;;12.19;75.41
46534;BME280;32260;52.008;4.752;2023-04-01T09:30:42;99869.94;;;12.18;75.57
46534;BME280;32260;52.008;4.752;2023-04-01T09:39:38;99873.78;;;12.32;74.88
46534;BME280;32260;52.008;4.752;2023-04-01T09:42:42;99878.31;;;12.29;74.95
46534;BME280;32260;52.008;4.752;2023-04-01T09:45:21;99886.66;;;12.20;75.38
46534;BME280;32260;52.008;4.752;2023-04-01T09:50:42;99895.56;;;12.19;75.08
46534;BME280;32260;52.008;4.752;2023-04-01T10:00:52;99890.59;;;12.32;75.51
46534;BME280;32260;52.008;4.752;2023-04-01T10:03:58;99902.94;;;12.33;75.13
46534;BME280;32260;52.008;4.752;2023-04-01T10:08:15;99902.81;;;12.36;75.06
46534;BME280;32260;52.008;4.752;2023-04-01T10:25:29;99919.47;;;12.40;75.39
46534;BME280;32260;52.008;4.752;2023-04-01T10:29:15;99929.06;;;12.44;75.20
46534;BME280;32260;52.008;4.752;2023-04-01T10:47:57;99944.81;;;12.49;74.97
46534;BME280;32260;52.008;4.752;2023-04-01T10:53:37;99948.78;;;12.16;75.93
46534;BME280;32260;52.008;4.752;2023-04-01T11:19:52;99966.44;;;12.39;74.99
46534;BME280;32260;52.008;4.752;2023-04-01T11:25:42;99966.69;;;12.33;75.96
46534;BME280;32260;52.008;4.752;2023-04-01T11:35:55;99983.16;;;12.64;75.31
46534;BME280;32260;52.008;4.752;2023-04-01T11:38:04;99980.63;;;12.60;75.20
46534;BME280;32260;52.008;4.752;2023-04-01T11:40:56;99987.84;;;12.57;75.06
46534;BME280;32260;52.008;4.752;2023-04-01T11:43:34;99990.75;;;12.51;75.09
46534;BME280;32260;52.008;4.752;2023-04-01T11:53:33;99997.09;;;12.69;75.33
46534;BME280;32260;52.008;4.752;2023-04-01T11:59:45;100015.06;;;12.84;75.07
46534;BME280;32260;52.008;4.752;2023-04-01T12:02:16;100018.59;;;12.85;75.18
46534;BME280;32260;52.008;4.752;2023-04-01T12:05:54;100029.25;;;12.83;75.26
46534;BME280;32260;52.008;4.752;2023-04-01T12:07:50;100018.84;;;12.99;74.90
46534;BME280;32260;52.008;4.752;2023-04-01T12:10:26;100025.16;;;12.97;75.23
46534;BME280;32260;52.008;4.752;2023-04-01T12:19:11;100037.53;;;12.98;74.49
46534;BME280;32260;52.008;4.752;2023-04-01T12:30:59;100047.38;;;13.16;74.47
46534;BME280;32260;52.008;4.752;2023-04-01T12:34:49;100056.75;;;13.25;74.28
46534;BME280;32260;52.008;4.752;2023-04-01T12:37:04;100058.75;;;13.40;74.57
46534;BME280;32260;52.008;4.752;2023-04-01T12:45:28;100063.88;;;13.66;74.16
46534;BME280;32260;52.008;4.752;2023-04-01T12:56:31;100075.19;;;13.50;73.72
46534;BME280;32260;52.008;4.752;2023-04-01T12:59:27;100073.94;;;13.37;73.87
46534;BME280;32260;52.008;4.752;2023-04-01T13:21:42;100110.84;;;13.03;74.57
46534;BME280;32260;52.008;4.752;2023-04-01T13:24:51;100111.06;;;12.99;74.73
46534;BME280;32260;52.008;4.752;2023-04-01T13:30:17;100112.97;;;12.95;74.99
46534;BME280;32260;52.008;4.752;2023-04-01T13:32:59;100118.13;;;13.00;75.28
46534;BME280;32260;52.008;4.752;2023-04-01T13:35:41;100119.69;;;13.04;75.04
46534;BME280;32260;52.008;4.752;2023-04-01T13:44:41;100132.75;;;13.10;74.87
46534;BME280;32260;52.008;4.752;2023-04-01T13:50:51;100130.44;;;13.01;75.10
46534;BME280;32260;52.008;4.752;2023-04-01T13:53:30;100143.91;;;12.98;75.35
46534;BME280;32260;52.008;4.752;2023-04-01T13:56:22;100133.25;;;12.98;75.50
46534;BME280;32260;52.008;4.752;2023-04-01T13:59:03;100137.94;;;12.91;75.74
46534;BME280;32260;52.008;4.752;2023-04-01T14:01:57;100139.38;;;13.00;75.79
46534;BME280;32260;52.008;4.752;2023-04-01T14:04:50;100140.91;;;13.05;75.70
46534;BME280;32260;52.008;4.752;2023-04-01T14:07:49;100144.97;;;13.14;75.38
46534;BME280;32260;52.008;4.752;2023-04-01T14:10:25;100155.28;;;13.01;75.69
46534;BME280;32260;52.008;4.752;2023-04-01T14:13:06;100156.13;;;13.02;76.00
46534;BME280;32260;52.008;4.752;2023-04-01T14:15:42;100164.53;;;13.13;75.90
46534;BME280;32260;52.008;4.752;2023-04-01T14:18:22;100170.91;;;13.09;75.68
46534;BME280;32260;52.008;4.752;2023-04-01T14:21:12;100166.50;;;13.08;75.81
46534;BME280;32260;52.008;4.752;2023-04-01T14:27:26;100178.31;;;13.01;75.98
46534;BME280;32260;52.008;4.752;2023-04-01T14:34:52;100191.50;;;13.04;76.04
46534;BME280;32260;52.008;4.752;2023-04-01T14:37:39;100196.56;;;13.10;76.06
46534;BME280;32260;52.008;4.752;2023-04-01T14:43:22;100202.31;;;13.21;76.00
46534;BME280;32260;52.008;4.752;2023-04-01T14:48:50;100205.47;;;13.31;75.69
46534;BME280;32260;52.008;4.752;2023-04-01T14:51:23;100207.38;;;13.27;76.05
46534;BME280;32260;52.008;4.752;2023-04-01T14:54:14;100219.63;;;13.32;76.13
46534;BME280;32260;52.008;4.752;2023-04-01T14:56:51;100226.00;;;13.27;75.89
46534;BME280;32260;52.008;4.752;2023-04-01T14:59:30;100231.31;;;13.27;75.90
46534;BME280;32260;52.008;4.752;2023-04-01T15:08:32;100239.31;;;13.27;75.74
46534;BME280;32260;52.008;4.752;2023-04-01T15:16:27;100261.41;;;13.30;75.77
46534;BME280;32260;52.008;4.752;2023-04-01T15:19:09;100266.03;;;13.24;75.92
46534;BME280;32260;52.008;4.752;2023-04-01T15:27:13;100281.69;;;13.10;75.90
46534;BME280;32260;52.008;4.752;2023-04-01T15:32:49;100290.53;;;13.10;75.70
46534;BME280;32260;52.008;4.752;2023-04-01T15:35:36;100285.66;;;13.00;75.84
46534;BME280;32260;52.008;4.752;2023-04-01T15:43:49;100315.63;;;12.79;76.00
46534;BME280;32260;52.008;4.752;2023-04-01T15:46:36;100322.53;;;12.85;76.01
46534;BME280;32260;52.008;4.752;2023-04-01T15:55:31;100329.81;;;12.80;76.13
46534;BME280;32260;52.008;4.752;2023-04-01T16:04:55;100344.38;;;12.70;76.33
46534;BME280;32260;52.008;4.752;2023-04-01T16:07:02;100351.47;;;12.69;76.04
46534;BME280;32260;52.008;4.752;2023-04-01T16:09:42;100351.53;;;12.68;76.51
46534;BME280;32260;52.008;4.752;2023-04-01T16:12:18;100363.06;;;12.67;76.38
46534;BME280;32260;52.008;4.752;2023-04-01T16:16:09;100363.06;;;12.67;76.50
46534;BME280;32260;52.008;4.752;2023-04-01T16:23:39;100387.91;;;12.66;76.30
46534;BME280;32260;52.008;4.752;2023-04-01T16:26:19;100382.72;;;12.62;76.36
46534;BME280;32260;52.008;4.752;2023-04-01T16:29:02;100383.72;;;12.58;76.18
46534;BME280;32260;52.008;4.752;2023-04-01T16:34:44;100405.75;;;12.62;76.26
46534;BME280;32260;52.008;4.752;2023-04-01T16:37:20;100406.78;;;12.58;76.74
46534;BME280;32260;52.008;4.752;2023-04-01T16:40:32;100413.78;;;12.60;76.55
46534;BME280;32260;52.008;4.752;2023-04-01T16:46:08;100420.03;;;12.59;75.95
46534;BME280;32260;52.008;4.752;2023-04-01T16:49:00;100430.78;;;12.56;75.79
46534;BME280;32260;52.008;4.752;2023-04-01T16:51:37;100434.66;;;12.46;75.94
46534;BME280;32260;52.008;4.752;2023-04-01T16:54:28;100432.81;;;12.48;76.08
46534;BME280;32260;52.008;4.752;2023-04-01T17:02:26;100459.16;;;12.29;76.05
46534;BME280;32260;52.008;4.752;2023-04-01T17:08:07;100472.50;;;12.27;75.37
46534;BME280;32260;52.008;4.752;2023-04-01T17:14:05;100483.31;;;12.21;75.93
46534;BME280;32260;52.008;4.752;2023-04-01T17:22:48;100495.78;;;12.19;75.59
46534;BME280;32260;52.008;4.752;2023-04-01T17:27:47;100509.56;;;12.02;75.12
46534;BME280;32260;52.008;4.752;2023-04-01T17:39:18;100541.50;;;12.01;75.22
46534;BME280;32260;52.008;4.752;2023-04-01T17:44:33;100550.47;;;11.95;74.70
46534;BME280;32260;52.008;4.752;2023-04-01T17:47:10;100560.41;;;11.88;75.27
46534;BME280;32260;52.008;4.752;2023-04-01T17:52:29;100576.34;;;11.88;75.22
46534;BME280;32260;52.008;4.752;2023-04-01T17:57:59;100581.66;;;11.88;74.82
46534;BME280;32260;52.008;4.752;2023-04-01T18:00:57;100586.97;;;11.88;75.15
46534;BME280;32260;52.008;4.752;2023-04-01T18:06:19;100599.41;;;11.86;74.97
46534;BME280;32260;52.008;4.752;2023-04-01T18:08:58;100608.44;;;11.80;75.23
46534;BME280;32260;52.008;4.752;2023-04-01T18:17:59;100629.72;;;11.79;75.12
46534;BME280;32260;52.008;4.752;2023-04-01T18:19:59;100639.31;;;11.83;75.35
46534;BME280;32260;52.008;4.752;2023-04-01T18:25:46;100650.00;;;11.81;75.48
46534;BME280;32260;52.008;4.752;2023-04-01T18:28:38;100661.47;;;11.82;74.86
46534;BME280;32260;52.008;4.752;2023-04-01T18:36:51;100673.22;;;11.73;75.61
46534;BME280;32260;52.008;4.752;2023-04-01T18:39:23;100688.44;;;11.67;75.15
46534;BME280;32260;52.008;4.752;2023-04-01T18:43:22;100697.22;;;11.69;74.92
46534;BME280;32260;52.008;4.752;2023-04-01T18:45:18;100701.03;;;11.58;74.74
46534;BME280;32260;52.008;4.752;2023-04-01T18:53:52;100726.88;;;11.50;75.12
46534;BME280;32260;52.008;4.752;2023-04-01T18:56:38;100732.09;;;11.55;74.98
46534;BME280;32260;52.008;4.752;2023-04-01T18:59:32;100734.09;;;11.46;75.49
46534;BME280;32260;52.008;4.752;2023-04-01T19:02:55;100749.97;;;11.48;74.89
46534;BME280;32260;52.008;4.752;2023-04-01T19:05:41;100742.94;;;11.45;75.09
46534;BME280;32260;52.008;4.752;2023-04-01T19:13:54;100778.19;;;11.51;74.89
46534;BME280;32260;52.008;4.752;2023-04-01T19:19:42;100787.31;;;11.39;74.82
46534;BME280;32260;52.008;4.752;2023-04-01T19:22:01;100789.06;;;11.40;75.14
46534;BME280;32260;52.008;4.752;2023-04-01T19:30:45;100803.06;;;11.45;75.25
46534;BME280;32260;52.008;4.752;2023-04-01T19:37:39;100819.16;;;11.39;74.78
46534;BME280;32260;52.008;4.752;2023-04-01T19:39:45;100823.50;;;11.43;74.18
46534;BME280;32260;52.008;4.752;2023-04-01T19:42:29;100824.44;;;11.39;74.47
46534;BME280;32260;52.008;4.752;2023-04-01T19:45:15;100832.50;;;11.36;74.35
46534;BME280;32260;52.008;4.752;2023-04-01T19:50:57;100845.81;;;11.34;74.20
46534;BME280;32260;52.008;4.752;2023-04-01T19:53:35;100852.09;;;11.28;74.23
46534;BME280;32260;52.008;4.752;2023-04-01T19:59:17;100865.41;;;11.27;74.00
46534;BME280;32260;52.008;4.752;2023-04-01T20:04:42;100876.22;;;11.17;74.01
46534;BME280;32260;52.008;4.752;2023-04-01T20:07:37;100887.88;;;11.10;73.67
46534;BME280;32260;52.008;4.752;2023-04-01T20:10:20;100888.88;;;11.05;74.03
46534;BME280;32260;52.008;4.752;2023-04-01T20:14:27;100896.75;;;11.08;74.04
46534;BME280;32260;52.008;4.752;2023-04-01T20:15:43;100891.59;;;11.00;73.33
46534;BME280;32260;52.008;4.752;2023-04-01T20:18:18;100902.97;;;11.05;73.76
46534;BME280;32260;52.008;4.752;2023-04-01T20:24:17;100920.88;;;10.95;73.34
46534;BME280;32260;52.008;4.752;2023-04-01T20:30:21;100934.19;;;10.92;73.34
46534;BME280;32260;52.008;4.752;2023-04-01T20:40:44;100948.41;;;10.88;73.71
46534;BME280;32260;52.008;4.752;2023-04-01T20:43:34;100956.44;;;10.83;73.18
46534;BME280;32260;52.008;4.752;2023-04-01T20:46:28;100960.78;;;10.89;73.74
46534;BME280;32260;52.008;4.752;2023-04-01T20:49:16;100968.84;;;10.83;73.02
46534;BME280;32260;52.008;4.752;2023-04-01T20:51:54;100978.56;;;10.82;73.66
46534;BME280;32260;52.008;4.752;2023-04-01T20:57:25;100989.19;;;10.81;72.82
46534;BME280;32260;52.008;4.752;2023-04-01T21:03:08;100995.59;;;10.67;72.99
46534;BME280;32260;52.008;4.752;2023-04-01T21:05:51;101009.88;;;10.60;73.24
46534;BME280;32260;52.008;4.752;2023-04-01T21:20:07;101032.97;;;10.52;72.39
46534;BME280;32260;52.008;4.752;2023-04-01T21:29:27;101051.56;;;10.50;72.13
46534;BME280;32260;52.008;4.752;2023-04-01T21:48:44;101086.22;;;10.33;71.98
46534;BME280;32260;52.008;4.752;2023-04-01T21:51:43;101099.44;;;10.36;72.08